createdAt,value
2019-03-31T00:02:20.780Z,8.93
2019-03-31T00:04:57.840Z,9.87
2019-03-31T00:07:27.788Z,9.57
2019-03-31T00:10:10.915Z,9.93
2019-03-31T00:12:47.050Z,9.53
2019-03-31T00:15:23.862Z,9.50
2019-03-31T00:17:53.825Z,9.30
2019-03-31T00:20:24.084Z,9.70
2019-03-31T00:23:00.144Z,10.15
2019-03-31T00:25:30.046Z,9.83
2019-03-31T00:27:59.865Z,10.73
2019-03-31T00:30:36.770Z,10.43
2019-03-31T00:33:06.629Z,10.53
2019-03-31T00:35:36.496Z,10.35
2019-03-31T00:38:12.743Z,10.32
2019-03-31T00:40:49.302Z,10.48
2019-03-31T00:43:25.406Z,10.78
2019-03-31T00:45:55.431Z,11.18
2019-03-31T00:48:25.713Z,10.60
2019-03-31T00:51:02.035Z,9.98
2019-03-31T00:53:32.004Z,10.30
2019-03-31T00:56:01.862Z,10.63
2019-03-31T00:58:39.978Z,10.63
2019-03-31T01:01:36.250Z,10.85
2019-03-31T01:04:06.640Z,10.15
2019-03-31T01:06:37.002Z,10.48
2019-03-31T01:09:26.819Z,10.53
2019-03-31T01:12:03.257Z,9.65
2019-03-31T01:14:45.432Z,10.23
2019-03-31T01:17:18.660Z,9.85
2019-03-31T01:19:47.292Z,9.65
2019-03-31T01:22:24.238Z,10.48
2019-03-31T01:24:54.443Z,10.10
2019-03-31T01:27:24.392Z,10.00
2019-03-31T01:30:01.307Z,10.25
2019-03-31T01:32:32.419Z,10.60
2019-03-31T01:35:03.086Z,10.45
2019-03-31T01:37:39.851Z,9.60
2019-03-31T01:40:10.360Z,10.38
2019-03-31T01:42:54.329Z,10.58
2019-03-31T01:45:24.002Z,10.00
2019-03-31T01:47:53.629Z,10.27
2019-03-31T01:50:30.597Z,10.08
2019-03-31T01:53:00.400Z,10.65
2019-03-31T01:55:30.238Z,10.10
2019-03-31T01:58:06.848Z,10.53
2019-03-31T02:00:45.354Z,11.00
2019-03-31T02:03:21.635Z,9.95
2019-03-31T02:05:51.307Z,10.35
2019-03-31T02:08:21.137Z,10.43
2019-03-31T02:10:57.483Z,10.75
2019-03-31T02:13:33.638Z,10.70
2019-03-31T02:16:09.962Z,10.43
2019-03-31T02:18:39.805Z,10.57
2019-03-31T02:21:09.729Z,10.75
2019-03-31T02:23:46.383Z,10.65
2019-03-31T02:26:16.343Z,10.40
2019-03-31T02:28:46.175Z,10.60
2019-03-31T02:31:22.364Z,10.58
2019-03-31T02:33:52.175Z,10.38
2019-03-31T02:36:22.040Z,11.03
2019-03-31T02:38:58.498Z,10.65
2019-03-31T02:41:28.383Z,11.35
2019-03-31T02:44:11.832Z,10.48
2019-03-31T02:46:41.764Z,10.70
2019-03-31T02:49:11.631Z,10.93
2019-03-31T02:51:48.004Z,10.68
2019-03-31T02:54:18.093Z,11.63
2019-03-31T02:56:47.845Z,11.28
2019-03-31T02:59:26.131Z,10.98
2019-03-31T03:01:57.794Z,11.43
2019-03-31T03:04:36.481Z,11.12
2019-03-31T03:07:08.125Z,10.78
2019-03-31T03:09:45.933Z,10.70
2019-03-31T03:12:24.517Z,10.70
2019-03-31T03:15:10.391Z,11.12
2019-03-31T03:17:40.231Z,11.70
2019-03-31T03:20:10.154Z,10.85
2019-03-31T03:22:47.449Z,11.33
2019-03-31T03:25:17.346Z,11.30
2019-03-31T03:27:47.241Z,10.82
2019-03-31T03:30:23.491Z,11.30
2019-03-31T03:33:13.476Z,10.77
2019-03-31T03:35:24.905Z,10.98
2019-03-31T03:38:01.761Z,11.18
2019-03-31T03:40:31.704Z,11.50
2019-03-31T03:43:01.568Z,12.10
2019-03-31T03:45:44.823Z,11.33
2019-03-31T03:48:14.749Z,11.88
2019-03-31T03:50:44.583Z,12.58
2019-03-31T03:53:20.863Z,11.65
2019-03-31T03:55:50.793Z,12.63
2019-03-31T03:58:20.560Z,12.37
2019-03-31T04:00:57.602Z,12.70
2019-03-31T04:03:30.869Z,12.98
2019-03-31T04:05:58.594Z,12.68
2019-03-31T04:08:34.623Z,12.78
2019-03-31T04:11:30.493Z,12.58
2019-03-31T04:14:12.860Z,12.50
2019-03-31T04:16:49.371Z,13.30
2019-03-31T04:19:25.827Z,13.40
2019-03-31T04:21:55.647Z,12.53
2019-03-31T04:24:25.555Z,13.43
2019-03-31T04:27:02.299Z,13.43
2019-03-31T04:29:32.475Z,13.48
2019-03-31T04:32:02.133Z,13.62
2019-03-31T04:34:38.869Z,12.98
2019-03-31T04:37:08.725Z,13.62
2019-03-31T04:39:39.419Z,14.25
2019-03-31T04:42:16.606Z,13.55
2019-03-31T04:44:46.187Z,13.43
2019-03-31T04:47:30.062Z,13.98
2019-03-31T04:49:59.993Z,13.45
2019-03-31T04:52:29.826Z,13.32
2019-03-31T04:55:06.579Z,13.58
2019-03-31T04:57:36.488Z,14.85
2019-03-31T05:00:06.583Z,13.80
2019-03-31T05:02:42.850Z,14.53
2019-03-31T05:05:12.836Z,14.50
2019-03-31T05:07:42.705Z,14.50
2019-03-31T05:10:19.074Z,13.90
2019-03-31T05:12:55.111Z,14.18
2019-03-31T05:15:38.131Z,13.93
2019-03-31T05:18:08.349Z,13.63
2019-03-31T05:20:38.211Z,13.68
2019-03-31T05:23:14.973Z,13.65
2019-03-31T05:25:44.870Z,14.43
2019-03-31T05:28:14.676Z,14.00
2019-03-31T05:30:50.954Z,14.18
2019-03-31T05:33:21.123Z,14.60
2019-03-31T05:35:50.957Z,14.70
2019-03-31T05:38:27.211Z,14.40
2019-03-31T05:40:57.053Z,15.40
2019-03-31T05:43:26.916Z,14.68
2019-03-31T05:46:03.794Z,15.43
2019-03-31T05:48:40.733Z,14.65
2019-03-31T05:51:17.501Z,15.45
2019-03-31T05:53:47.530Z,14.95
2019-03-31T05:56:17.373Z,15.08
2019-03-31T05:58:54.186Z,14.75
2019-03-31T06:01:49.656Z,15.23
2019-03-31T06:04:33.689Z,14.33
2019-03-31T06:07:03.479Z,15.53
2019-03-31T06:09:33.166Z,15.72
2019-03-31T06:12:09.815Z,16.27
2019-03-31T06:14:39.649Z,15.23
2019-03-31T06:17:09.078Z,14.60
2019-03-31T06:19:45.306Z,14.53
2019-03-31T06:22:15.164Z,14.05
2019-03-31T06:24:44.668Z,15.40
2019-03-31T06:27:21.749Z,14.17
2019-03-31T06:29:51.612Z,13.93
2019-03-31T06:32:21.274Z,13.58
2019-03-31T06:34:58.198Z,14.75
2019-03-31T06:37:28.649Z,13.43
2019-03-31T06:39:58.479Z,13.40
2019-03-31T06:42:35.003Z,13.45
2019-03-31T06:45:04.982Z,12.40
2019-03-31T06:47:34.803Z,13.13
2019-03-31T06:50:18.282Z,11.12
2019-03-31T06:52:47.938Z,12.13
2019-03-31T06:55:17.695Z,12.07
2019-03-31T06:57:54.345Z,12.07
2019-03-31T07:00:24.109Z,11.50
2019-03-31T07:03:06.539Z,11.33
2019-03-31T07:05:43.157Z,10.72
2019-03-31T07:08:19.085Z,10.13
2019-03-31T07:10:48.593Z,9.55
2019-03-31T07:13:18.571Z,9.43
2019-03-31T07:15:54.785Z,8.70
2019-03-31T07:18:24.564Z,7.20
2019-03-31T07:20:54.423Z,6.50
2019-03-31T07:23:31.386Z,6.20
2019-03-31T07:26:01.113Z,6.55
2019-03-31T07:28:30.890Z,5.30
2019-03-31T07:31:07.026Z,5.42
2019-03-31T07:33:36.853Z,5.67
2019-03-31T07:36:06.853Z,6.03
2019-03-31T07:38:43.049Z,6.40
2019-03-31T07:41:13.485Z,6.72
2019-03-31T07:43:43.497Z,5.80
2019-03-31T07:46:19.818Z,5.83
2019-03-31T07:48:49.779Z,5.03
2019-03-31T07:51:40.270Z,5.37
2019-03-31T07:54:10.304Z,5.20
2019-03-31T07:56:47.190Z,4.97
2019-03-31T07:59:16.986Z,4.78
2019-03-31T08:01:46.891Z,5.00
2019-03-31T08:04:24.122Z,4.80
2019-03-31T08:06:59.991Z,4.65
2019-03-31T08:09:36.882Z,3.90
2019-03-31T08:12:07.309Z,3.98
2019-03-31T08:14:36.875Z,3.72
2019-03-31T08:17:13.096Z,3.90
2019-03-31T08:19:42.721Z,3.40
2019-03-31T08:22:12.462Z,3.77
2019-03-31T08:24:51.976Z,3.70
2019-03-31T08:27:22.018Z,3.72
2019-03-31T08:30:00.068Z,3.40
2019-03-31T08:32:30.232Z,3.15
2019-03-31T08:35:00.092Z,3.30
2019-03-31T08:37:29.960Z,3.35
2019-03-31T08:40:05.992Z,2.80
2019-03-31T08:42:35.823Z,3.30
2019-03-31T08:45:06.206Z,3.30
2019-03-31T08:47:42.484Z,3.08
2019-03-31T08:50:12.401Z,2.95
2019-03-31T08:52:55.465Z,3.17
2019-03-31T08:55:24.993Z,3.00
2019-03-31T08:57:54.779Z,2.95
2019-03-31T09:00:49.253Z,2.90
2019-03-31T09:03:25.642Z,2.77
2019-03-31T09:06:08.452Z,2.80
2019-03-31T09:08:37.963Z,2.80
2019-03-31T09:11:07.577Z,2.90
2019-03-31T09:13:44.280Z,3.08
2019-03-31T09:16:13.756Z,3.20
2019-03-31T09:18:43.562Z,2.75
2019-03-31T09:21:20.042Z,2.80
2019-03-31T09:23:49.950Z,3.12
2019-03-31T09:26:19.847Z,3.35
2019-03-31T09:28:56.062Z,3.22
2019-03-31T09:31:25.848Z,3.42
2019-03-31T09:33:55.362Z,3.45
2019-03-31T09:36:31.494Z,3.42
2019-03-31T09:39:01.299Z,2.98
2019-03-31T09:41:31.060Z,3.25
2019-03-31T09:44:07.631Z,3.12
2019-03-31T09:46:37.442Z,3.70
2019-03-31T09:49:07.303Z,3.17
2019-03-31T09:51:44.244Z,3.30
2019-03-31T09:54:21.106Z,3.33
2019-03-31T09:56:57.654Z,3.47
2019-03-31T09:59:27.593Z,3.15
2019-03-31T10:01:57.433Z,3.10
2019-03-31T10:04:33.869Z,2.80
2019-03-31T10:07:10.298Z,2.75
2019-03-31T10:09:47.011Z,2.90
2019-03-31T10:12:16.756Z,2.98
2019-03-31T10:14:46.603Z,3.27
2019-03-31T10:17:23.358Z,2.90
2019-03-31T10:19:53.225Z,3.25
2019-03-31T10:22:23.470Z,3.75
2019-03-31T10:24:59.707Z,3.80
2019-03-31T10:27:29.610Z,4.40
2019-03-31T10:30:00.643Z,4.28
2019-03-31T10:32:36.553Z,3.98
2019-03-31T10:35:07.558Z,4.00
2019-03-31T10:37:37.471Z,3.90
2019-03-31T10:40:16.382Z,4.12
2019-03-31T10:42:46.165Z,3.92
2019-03-31T10:45:15.865Z,3.60
2019-03-31T10:47:52.853Z,3.58
2019-03-31T10:50:22.929Z,3.30
2019-03-31T10:52:52.921Z,3.20
2019-03-31T10:55:35.790Z,3.08
2019-03-31T10:58:05.519Z,3.30
2019-03-31T11:00:36.360Z,3.33
2019-03-31T11:03:14.089Z,3.40
2019-03-31T11:05:50.646Z,3.15
2019-03-31T11:08:33.516Z,3.25
2019-03-31T11:11:03.358Z,3.15
2019-03-31T11:13:33.292Z,2.85
2019-03-31T11:16:09.973Z,2.60
2019-03-31T11:18:39.767Z,2.67
2019-03-31T11:21:22.878Z,2.62
2019-03-31T11:23:52.784Z,2.58
2019-03-31T11:26:22.710Z,2.10
2019-03-31T11:28:58.843Z,2.12
2019-03-31T11:31:28.668Z,1.90
2019-03-31T11:33:58.382Z,1.65
2019-03-31T11:36:35.011Z,1.65
2019-03-31T11:39:06.875Z,2.00
2019-03-31T11:41:36.763Z,1.70
2019-03-31T11:44:12.972Z,1.62
2019-03-31T11:46:42.812Z,1.42
2019-03-31T11:49:12.410Z,1.67
2019-03-31T11:51:48.747Z,1.60
2019-03-31T11:54:18.572Z,1.50
2019-03-31T11:57:01.879Z,1.50
2019-03-31T11:59:31.825Z,1.67
2019-03-31T12:02:01.907Z,1.43
2019-03-31T12:04:38.624Z,1.30
2019-03-31T12:07:27.234Z,1.40
2019-03-31T12:09:59.178Z,1.37
2019-03-31T12:12:29.167Z,1.50
2019-03-31T12:15:00.558Z,1.60
2019-03-31T12:17:37.152Z,1.60
2019-03-31T12:20:07.389Z,1.52
2019-03-31T12:22:37.346Z,1.20
2019-03-31T12:25:14.679Z,1.20
2019-03-31T12:27:44.685Z,1.20
2019-03-31T12:30:23.519Z,1.20
2019-03-31T12:32:53.449Z,0.93
2019-03-31T12:35:23.368Z,1.00
2019-03-31T12:37:59.440Z,1.00
2019-03-31T12:40:33.678Z,0.95
2019-03-31T12:43:10.326Z,0.90
2019-03-31T12:45:43.000Z,0.75
2019-03-31T12:48:11.751Z,0.60
2019-03-31T12:50:47.920Z,0.60
2019-03-31T12:53:17.731Z,0.50
2019-03-31T12:55:59.403Z,0.72
2019-03-31T12:58:32.977Z,0.40
2019-03-31T13:01:02.871Z,0.33
2019-03-31T13:03:33.944Z,0.50
2019-03-31T13:06:10.359Z,0.50
2019-03-31T13:08:46.557Z,0.40
2019-03-31T13:11:30.510Z,0.50
2019-03-31T13:14:00.433Z,0.40
2019-03-31T13:16:30.770Z,0.70
2019-03-31T13:19:06.767Z,0.70
2019-03-31T13:21:36.644Z,0.50
2019-03-31T13:24:06.480Z,0.55
2019-03-31T13:26:42.547Z,0.40
2019-03-31T13:29:12.408Z,0.50
2019-03-31T13:31:42.282Z,0.72
2019-03-31T13:34:19.486Z,0.40
2019-03-31T13:36:49.379Z,0.80
2019-03-31T13:39:19.337Z,0.62
2019-03-31T13:41:56.601Z,0.40
2019-03-31T13:44:27.983Z,0.40
2019-03-31T13:46:57.848Z,0.50
2019-03-31T13:49:33.845Z,0.40
2019-03-31T13:52:03.752Z,0.50
2019-03-31T13:54:47.203Z,0.57
2019-03-31T13:57:17.399Z,0.50
2019-03-31T14:00:00.814Z,0.40
2019-03-31T14:02:30.780Z,0.50
2019-03-31T14:05:00.651Z,0.50
2019-03-31T14:07:36.672Z,0.70
2019-03-31T14:10:13.042Z,0.60
2019-03-31T14:12:49.468Z,0.40
2019-03-31T14:15:19.917Z,0.50
2019-03-31T14:17:49.846Z,0.50
2019-03-31T14:20:27.013Z,0.40
2019-03-31T14:22:59.415Z,0.30
2019-03-31T14:25:36.091Z,0.40
2019-03-31T14:28:05.995Z,0.50
2019-03-31T14:30:35.887Z,0.40
2019-03-31T14:33:12.605Z,0.40
2019-03-31T14:35:42.756Z,0.65
2019-03-31T14:38:13.760Z,0.60
2019-03-31T14:40:49.962Z,0.45
2019-03-31T14:43:20.119Z,0.50
2019-03-31T14:45:49.792Z,0.65
2019-03-31T14:48:26.318Z,0.70
2019-03-31T14:50:56.242Z,0.57
2019-03-31T14:53:26.203Z,0.70
2019-03-31T14:56:03.224Z,0.50
2019-03-31T14:58:33.096Z,0.80
2019-03-31T15:01:16.512Z,0.53
2019-03-31T15:03:46.357Z,0.55
2019-03-31T15:06:16.371Z,0.60
2019-03-31T15:08:54.678Z,0.60
2019-03-31T15:11:31.233Z,0.72
2019-03-31T15:14:08.009Z,0.68
2019-03-31T15:16:37.998Z,0.62
2019-03-31T15:19:08.810Z,0.80
2019-03-31T15:21:45.393Z,0.60
2019-03-31T15:24:15.234Z,0.60
2019-03-31T15:26:45.205Z,0.80
2019-03-31T15:29:22.016Z,0.65
2019-03-31T15:31:51.902Z,0.60
2019-03-31T15:34:21.939Z,0.50
2019-03-31T15:36:59.322Z,0.70
2019-03-31T15:39:29.279Z,0.72
2019-03-31T15:41:59.141Z,0.50
2019-03-31T15:44:35.756Z,0.65
2019-03-31T15:47:05.555Z,0.70
2019-03-31T15:49:35.426Z,0.70
2019-03-31T15:52:11.615Z,0.70
2019-03-31T15:54:41.488Z,0.70
2019-03-31T15:57:11.475Z,0.85
2019-03-31T15:59:56.916Z,0.70
2019-03-31T16:02:34.519Z,0.93
2019-03-31T16:05:12.846Z,0.80
2019-03-31T16:07:45.081Z,0.60
2019-03-31T16:10:28.022Z,0.93
2019-03-31T16:13:04.777Z,1.10
2019-03-31T16:15:41.139Z,0.93
2019-03-31T16:18:10.806Z,0.80
2019-03-31T16:20:39.876Z,0.70
2019-03-31T16:23:17.423Z,0.90
2019-03-31T16:25:51.104Z,0.70
2019-03-31T16:28:28.478Z,0.80
2019-03-31T16:30:57.857Z,0.80
2019-03-31T16:33:27.460Z,1.03
2019-03-31T16:36:03.522Z,1.00
2019-03-31T16:38:32.895Z,0.90
2019-03-31T16:41:02.058Z,0.82
2019-03-31T16:43:39.499Z,0.80
2019-03-31T16:46:08.815Z,0.93
2019-03-31T16:48:37.657Z,0.93
2019-03-31T16:51:13.185Z,0.80
2019-03-31T16:53:42.985Z,0.90
2019-03-31T16:56:12.269Z,0.80
2019-03-31T16:58:48.604Z,1.10
2019-03-31T17:01:17.904Z,1.00
2019-03-31T17:04:00.175Z,0.90
2019-03-31T17:06:29.485Z,1.10
2019-03-31T17:08:59.740Z,1.00
2019-03-31T17:11:36.570Z,1.00
2019-03-31T17:14:12.040Z,0.90
2019-03-31T17:16:47.902Z,0.82
2019-03-31T17:19:17.206Z,1.00
2019-03-31T17:21:47.421Z,1.10
2019-03-31T17:24:23.501Z,0.90
2019-03-31T17:26:52.810Z,1.10
2019-03-31T17:29:23.215Z,1.25
2019-03-31T17:32:00.544Z,1.10
2019-03-31T17:34:29.840Z,1.10
2019-03-31T17:37:02.325Z,1.20
2019-03-31T17:39:38.172Z,1.20
2019-03-31T17:42:07.024Z,1.30
2019-03-31T17:44:36.347Z,1.10
2019-03-31T17:47:12.773Z,1.40
2019-03-31T17:49:42.198Z,1.30
2019-03-31T17:52:11.517Z,1.60
2019-03-31T17:54:47.964Z,1.30
2019-03-31T17:57:18.287Z,1.37
2019-03-31T17:59:48.615Z,1.37
2019-03-31T18:02:26.688Z,1.37
2019-03-31T18:05:02.548Z,1.57
2019-03-31T18:07:38.652Z,1.40
2019-03-31T18:10:21.314Z,1.40
2019-03-31T18:12:59.362Z,1.63
2019-03-31T18:15:28.696Z,1.50
2019-03-31T18:17:58.943Z,1.50
2019-03-31T18:20:34.948Z,1.87
2019-03-31T18:23:04.455Z,1.47
2019-03-31T18:25:33.973Z,1.60
2019-03-31T18:28:09.681Z,1.43
2019-03-31T18:30:39.193Z,1.82
2019-03-31T18:33:09.813Z,1.53
2019-03-31T18:35:45.631Z,1.92
2019-03-31T18:38:15.027Z,1.80
2019-03-31T18:40:44.275Z,1.60
2019-03-31T18:43:21.028Z,1.70
2019-03-31T18:45:50.484Z,1.50
2019-03-31T18:48:19.823Z,2.00
2019-03-31T18:50:55.295Z,1.80
2019-03-31T18:53:44.667Z,1.85
2019-03-31T18:56:40.171Z,2.10
2019-03-31T18:59:46.963Z,1.80
2019-03-31T19:02:41.006Z,1.70
2019-03-31T19:05:41.308Z,2.08
2019-03-31T19:09:00.591Z,1.87
2019-03-31T19:11:54.181Z,2.10
2019-03-31T19:14:48.823Z,1.82
2019-03-31T19:17:35.631Z,1.90
2019-03-31T19:20:36.617Z,2.00
2019-03-31T19:23:27.897Z,2.17
2019-03-31T19:26:18.686Z,1.98
2019-03-31T19:29:19.980Z,2.00
2019-03-31T19:32:12.389Z,2.25
2019-03-31T19:34:48.649Z,1.98
2019-03-31T19:37:49.498Z,2.80
2019-03-31T19:40:41.657Z,2.70
2019-03-31T19:43:46.193Z,2.62
2019-03-31T19:46:31.134Z,2.90
2019-03-31T19:49:29.525Z,2.77
2019-03-31T19:52:19.923Z,2.50
2019-03-31T19:55:17.632Z,2.50
2019-03-31T19:58:04.438Z,2.42
2019-03-31T20:01:12.242Z,2.07
2019-03-31T20:03:57.447Z,2.20
2019-03-31T20:06:52.658Z,2.35
2019-03-31T20:09:47.707Z,2.47
2019-03-31T20:12:45.087Z,2.67
2019-03-31T20:15:34.951Z,2.40
2019-03-31T20:18:32.392Z,2.62
2019-03-31T20:21:08.946Z,2.70
2019-03-31T20:23:53.502Z,2.50
2019-03-31T20:26:55.296Z,2.77
2019-03-31T20:29:40.082Z,2.40
2019-03-31T20:32:26.292Z,2.50
2019-03-31T20:35:17.910Z,2.47
2019-03-31T20:38:18.083Z,2.12
2019-03-31T20:41:06.311Z,2.52
2019-03-31T20:43:53.411Z,2.42
2019-03-31T20:46:30.627Z,2.20
2019-03-31T20:49:00.442Z,2.22
2019-03-31T20:51:30.108Z,2.00
2019-03-31T20:54:06.397Z,2.30
2019-03-31T20:56:35.790Z,2.30
2019-03-31T20:59:05.422Z,2.20
2019-03-31T21:01:41.725Z,2.40
2019-03-31T21:04:11.210Z,2.30
2019-03-31T21:06:40.633Z,2.12
2019-03-31T21:09:16.798Z,2.05
2019-03-31T21:12:14.978Z,2.50
2019-03-31T21:14:50.920Z,2.33
2019-03-31T21:17:20.475Z,2.30
2019-03-31T21:19:51.323Z,2.22
2019-03-31T21:22:27.250Z,2.12
2019-03-31T21:24:56.621Z,2.35
2019-03-31T21:27:26.078Z,2.20
2019-03-31T21:30:02.526Z,2.10
2019-03-31T21:32:31.923Z,2.22
2019-03-31T21:35:01.375Z,2.40
2019-03-31T21:37:37.195Z,2.25
2019-03-31T21:40:06.935Z,2.20
2019-03-31T21:42:36.378Z,2.35
2019-03-31T21:45:12.306Z,2.30
2019-03-31T21:47:41.937Z,2.52
2019-03-31T21:50:13.141Z,2.30
2019-03-31T21:52:49.134Z,2.42
2019-03-31T21:55:18.565Z,2.62
2019-03-31T21:57:47.993Z,2.55
2019-03-31T22:00:27.512Z,2.40
2019-03-31T22:02:56.990Z,2.40
2019-03-31T22:05:26.764Z,2.25
2019-03-31T22:08:03.980Z,2.60
2019-03-31T22:10:33.451Z,2.50
2019-03-31T22:13:23.156Z,2.40
2019-03-31T22:15:52.565Z,2.40
2019-03-31T22:18:21.937Z,2.50
2019-03-31T22:20:58.244Z,2.30
2019-03-31T22:23:27.625Z,2.52
2019-03-31T22:25:56.955Z,2.45
2019-03-31T22:28:33.395Z,2.45
2019-03-31T22:31:03.371Z,2.70
2019-03-31T22:33:32.767Z,2.77
2019-03-31T22:36:26.745Z,3.00
2019-03-31T22:38:55.964Z,2.67
2019-03-31T22:41:25.257Z,2.50
2019-03-31T22:44:01.701Z,2.40
2019-03-31T22:46:30.856Z,2.70
2019-03-31T22:48:59.945Z,2.70
2019-03-31T22:51:36.232Z,2.53
2019-03-31T22:54:06.293Z,2.70
2019-03-31T22:56:35.783Z,2.58
2019-03-31T22:59:12.190Z,2.70
2019-03-31T23:01:42.100Z,2.60
2019-03-31T23:04:11.928Z,2.37
2019-03-31T23:06:47.874Z,2.20
2019-03-31T23:09:17.748Z,2.50
2019-03-31T23:11:47.537Z,2.60
2019-03-31T23:14:30.968Z,2.73
2019-03-31T23:17:07.503Z,2.60
2019-03-31T23:19:43.052Z,2.58
2019-03-31T23:22:12.819Z,2.85
2019-03-31T23:24:42.452Z,2.50
2019-03-31T23:27:19.043Z,2.58
2019-03-31T23:29:50.319Z,2.30
2019-03-31T23:32:20.254Z,2.90
2019-03-31T23:34:57.016Z,2.77
2019-03-31T23:37:26.314Z,2.80
2019-03-31T23:39:56.178Z,2.52
2019-03-31T23:42:32.461Z,2.70
2019-03-31T23:45:02.006Z,2.77
2019-03-31T23:47:31.536Z,3.02
2019-03-31T23:50:07.645Z,3.08
2019-03-31T23:52:37.359Z,3.15
2019-03-31T23:55:07.367Z,2.80
2019-03-31T23:57:50.065Z,2.70
